Time;durP1;ratioP1;P1;durP2;ratioP2;P2;SDS_P1;SDS_P2;PMS_P1;PMS_P2;Temp;Humidity;BMP_temperature;BMP_pressure;BME280_temperature;BME280_humidity;BME280_pressure;Samples;Min_cycle;Max_cycle;Signal;HPM_P1;HPM_P2
2022/08/21 00:00:39;;;;;;;1.60;1.50;;;;;;;19.68;72.74;98919.84;5111679;28;42487;-77
2022/08/21 00:03:09;;;;;;;1.80;1.70;;;;;;;19.52;72.89;98892.84;5110940;28;40852;-75
2022/08/21 00:05:39;;;;;;;1.97;1.80;;;;;;;19.60;73.17;98914.41;5110251;28;42554;-76
2022/08/21 00:08:09;;;;;;;2.07;1.80;;;;;;;19.55;73.05;98903.25;5112572;28;42863;-74
2022/08/21 00:10:37;;;;;;;2.03;1.87;;;;;;;19.40;73.13;98883.25;5110531;28;42691;-76
2022/08/21 00:13:06;;;;;;;1.50;1.40;;;;;;;19.47;73.48;98895.09;5111758;28;39674;-74
2022/08/21 00:15:36;;;;;;;1.63;1.53;;;;;;;19.44;73.65;98898.06;5113100;28;42450;-74
2022/08/21 00:18:04;;;;;;;2.03;1.83;;;;;;;19.41;73.30;98892.97;5092088;28;44054;-76
2022/08/21 00:20:32;;;;;;;1.87;1.70;;;;;;;19.37;73.40;98899.66;5094100;28;40908;-75
2022/08/21 00:23:00;;;;;;;1.80;1.70;;;;;;;19.31;73.62;98884.16;5093587;28;38927;-74
2022/08/21 00:25:29;;;;;;;1.93;1.77;;;;;;;19.31;73.90;98889.50;5094636;28;40762;-75
2022/08/21 00:27:57;;;;;;;2.10;1.90;;;;;;;19.26;73.97;98881.09;5111201;28;43223;-75
2022/08/21 00:30:27;;;;;;;1.80;1.70;;;;;;;19.24;73.95;98877.69;5111715;28;43018;-74
2022/08/21 00:32:56;;;;;;;1.80;1.70;;;;;;;19.21;73.91;98883.34;5111154;28;38849;-73
2022/08/21 00:35:27;;;;;;;2.50;2.30;;;;;;;19.16;74.10;98880.31;5111470;28;41984;-76
2022/08/21 00:37:55;;;;;;;1.70;1.60;;;;;;;19.16;73.89;98891.03;5092831;28;41781;-76
2022/08/21 00:40:25;;;;;;;1.83;1.73;;;;;;;19.13;75.37;98885.97;5111791;28;42331;-74
2022/08/21 00:42:55;;;;;;;2.23;2.03;;;;;;;19.11;74.61;98885.25;5091194;28;39703;-76
2022/08/21 00:45:22;;;;;;;1.90;1.80;;;;;;;19.08;74.47;98883.72;5112255;28;41622;-75
2022/08/21 00:47:51;;;;;;;2.10;1.90;;;;;;;19.02;74.89;98878.94;5111787;28;42624;-75
2022/08/21 00:50:20;;;;;;;2.33;1.70;;;;;;;19.00;75.14;98876.41;5111180;28;42302;-75
2022/08/21 00:52:48;;;;;;;2.07;1.87;;;;;;;19.01;74.76;98879.94;5107729;28;41582;-75
2022/08/21 00:55:16;;;;;;;1.87;1.70;;;;;;;18.98;74.44;98875.72;5112114;28;41765;-74
2022/08/21 00:57:49;;;;;;;2.20;2.00;;;;;;;18.93;74.93;98867.25;5093795;28;42826;-74
2022/08/21 01:00:23;;;;;;;2.17;1.97;;;;;;;18.90;74.72;98872.94;5093837;28;41224;-74
2022/08/21 01:02:51;;;;;;;1.73;1.63;;;;;;;18.85;75.02;98867.16;5109303;28;41444;-74
2022/08/21 01:05:19;;;;;;;2.00;1.90;;;;;;;18.88;74.76;98879.44;5094330;28;40673;-76
2022/08/21 01:07:47;;;;;;;2.00;1.80;;;;;;;18.85;75.12;98885.94;5107251;28;44089;-75
2022/08/21 01:10:15;;;;;;;2.10;1.90;;;;;;;18.83;74.95;98887.06;5112218;28;42165;-74
2022/08/21 01:12:43;;;;;;;1.93;1.83;;;;;;;18.81;75.07;98881.00;5110250;28;39856;-75
2022/08/21 01:15:12;;;;;;;2.00;1.80;;;;;;;18.74;74.91;98886.13;5111072;28;41761;-75
2022/08/21 01:17:41;;;;;;;2.40;1.93;;;;;;;18.75;75.13;98887.81;5089486;28;41605;-75
2022/08/21 01:20:12;;;;;;;2.17;1.80;;;;;;;18.69;75.12;98885.69;5093561;28;40620;-76
2022/08/21 01:22:41;;;;;;;2.80;2.20;;;;;;;18.68;76.47;98884.00;5109445;28;40098;-75
2022/08/21 01:25:11;;;;;;;2.37;2.17;;;;;;;18.57;76.38;98876.09;5092840;28;41692;-74
2022/08/21 01:27:39;;;;;;;2.53;2.30;;;;;;;18.57;76.39;98878.78;5111911;28;43732;-75
2022/08/21 01:30:12;;;;;;;2.37;2.17;;;;;;;18.58;76.59;98881.34;5111249;28;42334;-75
2022/08/21 01:32:40;;;;;;;2.93;2.27;;;;;;;18.55;76.64;98886.97;5108112;28;40646;-74
2022/08/21 01:35:08;;;;;;;2.50;2.30;;;;;;;18.56;77.01;98886.00;5111240;28;42783;-75
2022/08/21 01:37:36;;;;;;;2.93;2.73;;;;;;;18.56;76.81;98882.47;5093611;28;44440;-75
2022/08/21 01:40:08;;;;;;;2.43;2.20;;;;;;;18.53;77.01;98888.13;5093244;28;42376;-75
2022/08/21 01:42:36;;;;;;;2.70;2.50;;;;;;;18.52;76.91;98886.44;5111880;28;41301;-74
2022/08/21 01:45:04;;;;;;;2.07;1.90;;;;;;;18.49;76.83;98887.56;5093923;28;40674;-76
2022/08/21 01:47:32;;;;;;;2.40;2.10;;;;;;;18.46;77.13;98887.00;5089383;28;41514;-75
2022/08/21 01:50:00;;;;;;;2.77;2.23;;;;;;;18.44;77.11;98889.84;5110609;28;42252;-75
2022/08/21 01:52:27;;;;;;;3.37;2.40;;;;;;;18.41;76.76;98883.94;5091549;28;39122;-75
2022/08/21 01:54:55;;;;;;;2.00;1.90;;;;;;;18.31;76.87;98874.06;5110614;28;40772;-75
2022/08/21 01:57:24;;;;;;;2.33;2.13;;;;;;;18.39;76.69;98893.94;5110658;28;43896;-75
2022/08/21 01:59:52;;;;;;;2.57;2.10;;;;;;;18.36;76.65;98887.03;5092393;28;41229;-75
2022/08/21 02:02:19;;;;;;;2.40;2.13;;;;;;;18.34;76.87;98889.00;5109764;28;41830;-75
2022/08/21 02:04:47;;;;;;;2.37;2.17;;;;;;;18.32;77.04;98890.97;5110886;28;41741;-76
2022/08/21 02:07:15;;;;;;;2.37;2.17;;;;;;;18.30;76.80;98888.44;5110681;28;41838;-74
2022/08/21 02:09:43;;;;;;;2.20;2.00;;;;;;;18.27;76.85;98894.13;5111530;28;43178;-75
2022/08/21 02:12:12;;;;;;;2.07;1.87;;;;;;;18.21;76.68;98883.94;5110446;28;39111;-74
2022/08/21 02:14:41;;;;;;;1.80;1.70;;;;;;;18.15;76.73;98867.59;5110133;28;41683;-74
2022/08/21 02:17:08;;;;;;;1.90;1.70;;;;;;;18.19;76.56;98879.72;5109782;28;42653;-75
2022/08/21 02:19:37;;;;;;;2.03;1.87;;;;;;;18.13;76.89;98870.44;5109927;28;41294;-76
2022/08/21 02:22:05;;;;;;;1.87;1.63;;;;;;;18.13;76.64;98869.59;5093297;28;38912;-74
2022/08/21 02:24:32;;;;;;;1.40;1.30;;;;;;;18.09;76.59;98871.69;5110214;28;40772;-74
2022/08/21 02:27:00;;;;;;;1.73;1.63;;;;;;;18.09;76.78;98874.38;5093392;28;41970;-75
2022/08/21 02:29:28;;;;;;;1.77;1.67;;;;;;;18.07;76.70;98870.13;5111139;28;42345;-74
2022/08/21 02:31:57;;;;;;;2.13;1.83;;;;;;;18.04;76.81;98870.44;5115182;28;40644;-74
2022/08/21 02:34:25;;;;;;;2.27;2.07;;;;;;;17.94;77.10;98862.38;5096413;28;41183;-75
2022/08/21 02:36:53;;;;;;;1.90;1.70;;;;;;;17.94;77.08;98865.06;5113938;28;42799;-77
2022/08/21 02:39:20;;;;;;;1.63;1.53;;;;;;;17.95;76.70;98877.47;5114864;28;43237;-75
2022/08/21 02:41:48;;;;;;;2.00;1.90;;;;;;;17.92;76.78;98875.97;5096789;28;38990;-76
2022/08/21 02:44:15;;;;;;;1.83;1.73;;;;;;;17.92;76.65;98872.44;5113723;28;41607;-74
2022/08/21 02:46:43;;;;;;;2.07;1.90;;;;;;;17.90;76.76;98871.72;5096638;28;42336;-74
2022/08/21 02:49:12;;;;;;;1.70;1.60;;;;;;;17.86;76.86;98871.16;5113501;28;43432;-76
2022/08/21 02:51:41;;;;;;;1.50;1.40;;;;;;;17.84;76.75;98869.59;5113637;28;39926;-75
2022/08/21 02:54:08;;;;;;;2.07;1.87;;;;;;;17.79;76.65;98863.84;5114135;28;42288;-74
2022/08/21 02:56:36;;;;;;;2.13;1.80;;;;;;;17.79;76.64;98866.50;5113639;28;42843;-76
2022/08/21 02:59:04;;;;;;;2.10;1.73;;;;;;;17.76;77.21;98864.09;5113262;28;41198;-74
2022/08/21 03:01:31;;;;;;;2.17;2.00;;;;;;;17.73;77.01;98867.06;5113647;28;39703;-74
2022/08/21 03:03:59;;;;;;;2.00;1.87;;;;;;;17.71;76.87;98864.50;5113143;28;41763;-74
2022/08/21 03:06:29;;;;;;;2.50;2.30;;;;;;;17.68;76.91;98869.34;5112949;28;41599;-73
2022/08/21 03:08:57;;;;;;;2.67;1.90;;;;;;;17.65;76.75;98867.78;5112601;28;42367;-75
2022/08/21 03:11:26;;;;;;;2.53;2.00;;;;;;;17.63;77.12;98872.41;5114015;28;39783;-75
2022/08/21 03:13:54;;;;;;;2.27;2.07;;;;;;;17.58;76.90;98870.13;5114038;28;42265;-75
2022/08/21 03:16:21;;;;;;;2.30;2.10;;;;;;;17.56;76.86;98864.03;5113113;28;43703;-75
2022/08/21 03:18:49;;;;;;;2.77;2.57;;;;;;;17.44;77.37;98857.13;5112622;28;43004;-75
2022/08/21 03:21:18;;;;;;;3.10;2.80;;;;;;;17.55;77.61;98862.38;5113271;28;41927;-74
2022/08/21 03:23:47;;;;;;;4.63;3.23;;;;;;;17.55;78.19;98864.22;5112857;28;41607;-74
2022/08/21 03:26:15;;;;;;;3.47;2.87;;;;;;;17.53;78.31;98864.34;5112948;28;41687;-73
2022/08/21 03:28:43;;;;;;;2.70;2.50;;;;;;;17.53;78.69;98866.19;5114097;28;43170;-75
2022/08/21 03:31:10;;;;;;;4.40;2.83;;;;;;;17.51;78.19;98873.50;5114338;28;39963;-75
2022/08/21 03:33:38;;;;;;;2.57;2.37;;;;;;;17.48;78.05;98871.94;5112625;28;40465;-75
2022/08/21 03:36:08;;;;;;;2.70;2.50;;;;;;;17.45;77.80;98864.19;5112910;28;42787;-75
2022/08/21 03:38:38;;;;;;;2.77;2.30;;;;;;;17.44;77.92;98867.84;5112674;28;42115;-73
2022/08/21 03:41:09;;;;;;;2.37;2.17;;;;;;;17.40;78.09;98877.16;5113675;27;39951;-74
2022/08/21 03:43:38;;;;;;;2.37;2.17;;;;;;;17.36;77.75;98873.03;5112109;28;40684;-74
2022/08/21 03:46:07;;;;;;;1.70;1.60;;;;;;;17.34;77.73;98872.34;5113963;28;42765;-74
2022/08/21 03:48:37;;;;;;;2.87;2.60;;;;;;;17.31;77.54;98871.78;5112347;28;42239;-73
2022/08/21 03:51:06;;;;;;;2.50;2.30;;;;;;;17.25;77.38;98859.78;5114015;28;39711;-73
2022/08/21 03:53:34;;;;;;;2.70;1.90;;;;;;;17.24;77.53;98874.16;5112346;28;42004;-75
2022/08/21 03:56:01;;;;;;;2.20;2.07;;;;;;;17.21;77.40;98874.41;5112530;28;42895;-74
2022/08/21 03:58:31;;;;;;;2.10;2.00;;;;;;;17.16;77.44;98876.69;5112082;28;42522;-73
2022/08/21 04:01:01;;;;;;;1.70;1.60;;;;;;;17.12;77.57;98877.91;5112690;28;39950;-74
2022/08/21 04:03:30;;;;;;;2.23;2.03;;;;;;;17.09;77.26;98888.88;5112178;28;42651;-75
2022/08/21 04:05:57;;;;;;;2.20;1.83;;;;;;;17.06;77.39;98886.50;5112375;28;42502;-75
2022/08/21 04:08:25;;;;;;;2.53;2.20;;;;;;;17.03;77.35;98900.16;5113114;28;42278;-74
2022/08/21 04:10:56;;;;;;;2.57;1.87;;;;;;;16.98;77.34;98894.34;5113704;28;40924;-74
2022/08/21 04:13:24;;;;;;;1.90;1.80;;;;;;;16.98;77.30;98903.22;5112496;28;41621;-74
2022/08/21 04:15:53;;;;;;;2.40;2.20;;;;;;;16.93;77.35;98902.78;5112364;28;43453;-75
2022/08/21 04:18:21;;;;;;;2.43;2.03;;;;;;;16.92;77.38;98909.13;5111538;28;41745;-75
2022/08/21 04:20:52;;;;;;;2.30;2.10;;;;;;;16.84;77.54;98901.75;5113143;28;39990;-75
2022/08/21 04:23:21;;;;;;;2.40;2.20;;;;;;;16.88;77.95;98913.03;5111447;28;41633;-74
2022/08/21 04:25:49;;;;;;;3.80;3.50;;;;;;;16.88;78.75;98913.88;5113165;28;43818;-75
2022/08/21 04:28:17;;;;;;;2.83;2.60;;;;;;;16.88;78.65;98918.38;5111990;28;42930;-74
2022/08/21 04:30:46;;;;;;;2.73;2.53;;;;;;;16.86;78.31;98921.19;5094986;28;39014;-75
2022/08/21 04:33:15;;;;;;;4.00;2.80;;;;;;;16.86;78.22;98926.53;5094366;28;41448;-74
2022/08/21 04:35:43;;;;;;;3.17;2.87;;;;;;;16.85;78.04;98930.19;5111814;28;43582;-75
2022/08/21 04:38:11;;;;;;;3.50;3.20;;;;;;;16.84;77.72;98933.00;5094552;28;41651;-73
2022/08/21 04:40:39;;;;;;;2.93;2.73;;;;;;;16.73;77.97;98917.03;5111806;28;39923;-76
2022/08/21 04:43:11;;;;;;;3.40;3.10;;;;;;;16.84;77.81;98933.00;5111485;28;42350;-73
2022/08/21 04:45:42;;;;;;;2.97;2.77;;;;;;;16.83;77.70;98940.19;5109932;28;43755;-74
2022/08/21 04:48:13;;;;;;;4.27;3.07;;;;;;;16.83;77.97;98940.19;5111388;28;42530;-76
2022/08/21 04:50:47;;;;;;;3.30;3.00;;;;;;;16.84;77.80;98943.69;5111887;28;38807;-74
2022/08/21 04:53:17;;;;;;;3.37;3.07;;;;;;;16.84;77.65;98944.56;5111357;27;41403;-74
2022/08/21 04:55:46;;;;;;;4.17;3.37;;;;;;;16.79;77.67;98938.78;5113002;28;43896;-75
2022/08/21 04:58:17;;;;;;;3.67;3.37;;;;;;;16.92;77.88;98951.09;5093889;28;42280;-75
2022/08/21 05:00:46;;;;;;;3.77;3.47;;;;;;;16.97;77.90;98960.38;5111820;28;40957;-74
2022/08/21 05:03:15;;;;;;;3.90;3.60;;;;;;;17.05;78.06;98954.38;5111156;28;41715;-75
2022/08/21 05:05:45;;;;;;;4.03;3.67;;;;;;;17.12;77.72;98958.19;5111432;28;43608;-73
2022/08/21 05:08:15;;;;;;;3.60;3.30;;;;;;;17.20;77.75;98953.00;5111012;28;42882;-75
2022/08/21 05:10:44;;;;;;;4.60;3.73;;;;;;;17.27;77.50;98962.22;5110624;28;39945;-74
2022/08/21 05:13:13;;;;;;;3.23;2.97;;;;;;;17.35;77.50;98965.03;5094251;28;41747;-75
2022/08/21 05:15:42;;;;;;;3.60;3.30;;;;;;;17.43;77.85;98957.16;5111182;28;42909;-74
2022/08/21 05:18:10;;;;;;;3.97;3.43;;;;;;;17.49;77.36;98956.63;5093693;28;41902;-74
2022/08/21 05:20:38;;;;;;;4.13;3.73;;;;;;;17.57;77.16;98969.34;5112516;28;39907;-75
2022/08/21 05:23:10;;;;;;;4.27;3.87;;;;;;;17.66;77.33;98973.06;5112112;28;42450;-76
2022/08/21 05:25:40;;;;;;;3.77;2.93;;;;;;;17.73;77.17;98971.53;5095350;28;20252;-74
2022/08/21 05:28:08;;;;;;;3.80;3.50;;;;;;;17.80;76.68;98970.00;5110833;28;42401;-74
2022/08/21 05:30:37;;;;;;;3.47;3.17;;;;;;;17.90;76.67;98970.84;5111244;28;41476;-75
2022/08/21 05:33:07;;;;;;;3.77;3.10;;;;;;;18.05;76.23;98974.78;5110704;28;40708;-74
2022/08/21 05:35:35;;;;;;;3.60;3.30;;;;;;;18.23;75.60;98975.81;5112095;28;43596;-75
2022/08/21 05:38:04;;;;;;;3.70;3.37;;;;;;;18.37;75.66;98973.69;5110754;28;42211;-75
2022/08/21 05:40:34;;;;;;;4.03;3.63;;;;;;;18.43;75.71;98970.41;5110919;28;40724;-75
2022/08/21 05:43:02;;;;;;;4.53;4.03;;;;;;;18.49;75.40;98969.88;5110913;28;42646;-76
2022/08/21 05:45:33;;;;;;;3.90;3.60;;;;;;;18.57;75.23;98978.03;5110881;28;41789;-74
2022/08/21 05:48:08;;;;;;;4.53;3.53;;;;;;;18.71;75.05;98972.25;5109445;28;42335;-74
2022/08/21 05:50:37;;;;;;;3.77;3.47;;;;;;;18.85;74.66;98984.38;5093970;28;41007;-75
2022/08/21 05:53:05;;;;;;;3.60;3.30;;;;;;;18.99;74.19;98981.22;5110421;28;40513;-75
2022/08/21 05:55:34;;;;;;;4.60;3.83;;;;;;;19.10;73.91;98985.56;5110491;28;41607;-75
2022/08/21 05:58:02;;;;;;;3.80;3.40;;;;;;;19.06;73.78;98984.16;5093359;28;41338;-73
2022/08/21 06:00:30;;;;;;;3.60;3.30;;;;;;;19.01;74.10;98980.09;5093446;28;40085;-75
2022/08/21 06:02:58;;;;;;;4.27;3.70;;;;;;;18.97;73.69;98977.84;5111809;28;42705;-74
2022/08/21 06:05:26;;;;;;;4.30;3.70;;;;;;;18.95;74.02;98975.31;5111844;28;41352;-74
2022/08/21 06:07:54;;;;;;;3.83;3.53;;;;;;;18.92;73.84;98970.22;5115247;28;43227;-76
2022/08/21 06:10:22;;;;;;;4.37;3.57;;;;;;;18.92;74.00;98974.75;5096437;28;38877;-74
2022/08/21 06:12:55;;;;;;;4.63;4.10;;;;;;;18.99;73.74;98965.97;5113918;28;42833;-75
2022/08/21 06:15:23;;;;;;;4.03;3.63;;;;;;;19.19;73.84;98968.56;5112358;28;42662;-75
2022/08/21 06:17:51;;;;;;;5.00;4.50;;;;;;;19.36;73.16;98974.03;5114960;28;42168;-76
2022/08/21 06:20:19;;;;;;;5.07;4.67;;;;;;;19.58;72.74;98980.03;5097224;28;40313;-74
2022/08/21 06:22:47;;;;;;;4.97;4.47;;;;;;;19.67;72.22;98971.91;5114005;28;40180;-74
2022/08/21 06:25:14;;;;;;;6.03;5.23;;;;;;;19.87;71.73;98982.53;5113949;28;41331;-74
2022/08/21 06:27:42;;;;;;;4.67;4.27;;;;;;;20.02;71.36;98983.72;5113823;28;43191;-74
2022/08/21 06:30:12;;;;;;;4.73;4.23;;;;;;;20.19;70.68;98972.09;5114009;28;40054;-75
2022/08/21 06:32:40;;;;;;;5.43;4.93;;;;;;;20.36;70.04;98978.53;5114605;28;41776;-75
2022/08/21 06:35:09;;;;;;;5.13;4.57;;;;;;;20.54;69.69;98978.50;5114900;28;42797;-75
2022/08/21 06:37:36;;;;;;;4.97;4.47;;;;;;;20.74;69.19;98980.00;5096620;28;41135;-74
2022/08/21 06:40:06;;;;;;;5.03;4.53;;;;;;;20.92;68.50;98980.78;5114099;28;43223;-78
2022/08/21 06:42:33;;;;;;;4.60;4.20;;;;;;;21.14;68.35;98982.13;5113817;28;40859;-76
2022/08/21 06:45:01;;;;;;;5.57;5.00;;;;;;;21.27;67.85;98974.47;5114126;28;42822;-74
2022/08/21 06:47:30;;;;;;;4.60;4.20;;;;;;;21.31;67.45;98973.13;5113881;28;42302;-77
2022/08/21 06:49:58;;;;;;;5.13;4.47;;;;;;;21.42;67.34;98978.25;5114009;28;40749;-79
2022/08/21 06:52:26;;;;;;;5.70;4.40;;;;;;;21.50;67.33;98974.75;5115113;28;42078;-76
2022/08/21 06:54:54;;;;;;;4.30;3.90;;;;;;;21.62;66.17;98969.91;5115206;28;42652;-77
2022/08/21 06:57:22;;;;;;;4.97;4.27;;;;;;;21.71;65.80;98977.88;5097098;28;42543;-80
2022/08/21 06:59:49;;;;;;;5.27;4.77;;;;;;;21.85;65.38;98979.94;5096774;28;40301;-73
2022/08/21 07:02:18;;;;;;;5.13;4.63;;;;;;;22.15;64.86;98977.66;5113709;28;41474;-75
2022/08/21 07:04:47;;;;;;;5.70;4.80;;;;;;;22.51;63.76;98987.13;5113487;28;41712;-78
2022/08/21 07:07:15;;;;;;;4.93;4.43;;;;;;;22.65;63.15;98992.84;5113594;28;42557;-74
2022/08/21 07:09:42;;;;;;;5.60;4.80;;;;;;;22.66;62.83;98987.28;5096344;28;40449;-80
2022/08/21 07:12:10;;;;;;;6.10;4.40;;;;;;;22.71;62.80;98981.41;5096602;28;40793;-76
2022/08/21 07:14:38;;;;;;;4.93;4.50;;;;;;;22.92;63.28;98985.28;5113391;28;43829;-76
2022/08/21 07:17:06;;;;;;;5.30;4.53;;;;;;;23.00;62.64;98981.72;5113484;27;41970;-76
2022/08/21 07:19:34;;;;;;;5.53;4.83;;;;;;;23.01;62.06;98991.50;5096031;28;39900;-74
2022/08/21 07:22:05;;;;;;;5.93;4.40;;;;;;;23.07;61.97;98971.06;5114463;28;42476;-76
2022/08/21 07:24:33;;;;;;;4.67;3.90;;;;;;;23.43;61.71;98987.69;5114383;28;42705;-76
2022/08/21 07:27:01;;;;;;;4.93;4.43;;;;;;;23.77;60.03;98979.28;5114282;28;43262;-73
2022/08/21 07:29:28;;;;;;;5.53;5.07;;;;;;;24.04;58.40;98991.50;5113368;28;39445;-78
2022/08/21 07:31:56;;;;;;;5.50;4.77;;;;;;;24.21;58.33;98998.50;5114405;28;41763;-74
2022/08/21 07:34:23;;;;;;;4.87;4.30;;;;;;;24.34;58.85;98987.94;5095838;28;44693;-77
2022/08/21 07:36:51;;;;;;;5.40;4.20;;;;;;;24.53;58.50;98983.91;5112960;28;43141;-74
2022/08/21 07:39:21;;;;;;;5.43;5.03;;;;;;;24.75;56.75;98984.88;5113023;28;40256;-76
2022/08/21 07:41:48;;;;;;;5.93;5.00;;;;;;;25.10;57.61;98980.72;5112737;28;41824;-75
2022/08/21 07:44:16;;;;;;;4.10;3.73;;;;;;;25.23;58.21;98981.72;5114190;28;43688;-75
2022/08/21 07:46:44;;;;;;;5.63;4.17;;;;;;;25.31;56.93;98989.78;5112873;28;42714;-76
2022/08/21 07:49:11;;;;;;;4.80;4.20;;;;;;;25.50;58.14;98961.25;5114244;28;40914;-73
2022/08/21 07:51:39;;;;;;;5.53;4.70;;;;;;;25.95;54.24;98987.31;5113736;28;42792;-76
2022/08/21 07:54:08;;;;;;;5.07;4.67;;;;;;;26.57;53.79;98981.31;5113811;28;43815;-76
2022/08/21 07:56:37;;;;;;;4.80;3.77;;;;;;;27.32;53.09;98977.97;5113863;28;42980;-76
2022/08/21 07:59:05;;;;;;;4.77;4.30;;;;;;;27.78;49.92;98999.16;5113817;28;39937;-77
2022/08/21 08:01:33;;;;;;;4.57;4.17;;;;;;;28.37;48.96;98996.66;5113874;28;41851;-75
2022/08/21 08:04:00;;;;;;;4.30;3.40;;;;;;;29.61;47.19;99003.16;5113895;28;42553;-74
2022/08/21 08:06:28;;;;;;;3.87;3.57;;;;;;;30.54;44.68;99011.81;5112282;28;42446;-75
2022/08/21 08:08:56;;;;;;;4.67;4.27;;;;;;;30.58;43.16;99018.53;5112386;28;38710;-74
2022/08/21 08:11:24;;;;;;;6.80;3.60;;;;;;;30.27;44.21;99008.38;5113300;28;42742;-76
2022/08/21 08:13:53;;;;;;;3.67;3.37;;;;;;;30.06;44.58;98997.75;5113641;28;43182;-75
2022/08/21 08:16:21;;;;;;;4.00;3.60;;;;;;;29.91;44.78;98997.19;5113110;28;42188;-75
2022/08/21 08:18:49;;;;;;;4.17;3.77;;;;;;;30.07;43.74;99004.06;5112776;28;41770;-75
2022/08/21 08:21:18;;;;;;;4.10;3.73;;;;;;;30.31;44.44;98990.47;5112308;28;41921;-75
2022/08/21 08:23:46;;;;;;;3.50;3.20;;;;;;;30.45;42.23;99009.53;5112265;28;44004;-73
2022/08/21 08:26:15;;;;;;;3.80;2.83;;;;;;;30.61;42.26;98998.09;5113475;28;42266;-72
2022/08/21 08:28:43;;;;;;;4.00;3.70;;;;;;;31.12;41.48;99008.03;5111870;27;39076;-76
2022/08/21 08:31:12;;;;;;;3.60;3.30;;;;;;;31.36;40.78;99007.19;5112284;28;41688;-76
2022/08/21 08:33:40;;;;;;;3.60;3.30;;;;;;;31.31;39.70;99005.09;5113381;28;42605;-75
2022/08/21 08:36:14;;;;;;;3.00;2.80;;;;;;;31.27;40.00;99005.81;5113606;28;42522;-76
2022/08/21 08:38:42;;;;;;;3.47;3.17;;;;;;;31.48;40.43;98993.56;5112437;28;40278;-77
2022/08/21 08:41:13;;;;;;;3.87;3.57;;;;;;;32.21;38.57;99016.34;5112022;28;40629;-73
2022/08/21 08:43:52;;;;;;;3.37;3.17;;;;;;;33.01;37.40;99022.31;5111869;28;43851;-73
2022/08/21 08:46:32;;;;;;;5.70;4.03;;;;;;;33.26;36.64;99024.06;5112302;28;41294;-76
2022/08/21 08:49:04;;;;;;;3.67;3.37;;;;;;;33.49;36.53;99015.81;5095015;28;40543;-73
2022/08/21 08:51:44;;;;;;;3.93;3.63;;;;;;;34.20;35.71;99020.13;5095147;28;41849;-75
2022/08/21 08:54:16;;;;;;;3.90;3.57;;;;;;;35.18;34.39;99016.97;5095071;28;42734;-74
2022/08/21 08:56:44;;;;;;;3.87;3.60;;;;;;;35.73;32.74;99040.97;5108744;28;42177;-76
2022/08/21 08:59:18;;;;;;;3.07;2.87;;;;;;;35.68;32.96;99029.88;5111709;28;40986;-75
2022/08/21 09:01:48;;;;;;;3.60;3.30;;;;;;;35.43;33.26;99026.75;5110090;28;41837;-75
2022/08/21 09:04:23;;;;;;;3.30;3.07;;;;;;;35.23;33.84;99019.00;5094454;28;41702;-76
2022/08/21 09:07:02;;;;;;;4.20;3.80;;;;;;;35.32;32.32;99027.69;5108645;28;42996;-74
2022/08/21 09:09:43;;;;;;;3.20;3.00;;;;;;;35.78;32.98;99021.78;5111543;28;40980;-75
2022/08/21 09:12:17;;;;;;;3.47;3.27;;;;;;;36.73;31.14;99038.91;5109912;28;41750;-78
2022/08/21 09:14:59;;;;;;;3.33;2.57;;;;;;;37.10;30.42;99006.66;5112656;28;43034;-76
2022/08/21 09:17:41;;;;;;;3.63;3.33;;;;;;;37.12;30.69;99034.84;5109477;28;43339;-75
2022/08/21 09:20:24;;;;;;;3.20;2.90;;;;;;;36.95;30.55;99025.91;5108720;28;39966;-80
2022/08/21 09:23:05;;;;;;;3.40;3.10;;;;;;;36.52;31.09;99013.03;5109934;28;42067;-75
2022/08/21 09:25:40;;;;;;;3.30;3.10;;;;;;;35.87;31.45;99013.88;5109645;28;44098;-76
2022/08/21 09:28:11;;;;;;;3.17;2.97;;;;;;;34.99;32.81;99006.50;5110502;28;42269;-75
2022/08/21 09:30:41;;;;;;;3.17;2.87;;;;;;;34.23;33.74;98997.63;5111293;28;40772;-77
2022/08/21 09:33:15;;;;;;;3.27;3.03;;;;;;;33.58;34.80;98961.34;5110084;28;42717;-73
2022/08/21 09:35:52;;;;;;;3.20;3.00;;;;;;;33.34;35.49;98982.53;5107797;28;42650;-76
2022/08/21 09:38:31;;;;;;;3.60;3.33;;;;;;;33.05;35.62;98985.09;5110914;28;41320;-76
2022/08/21 09:41:03;;;;;;;4.17;3.77;;;;;;;33.55;35.10;98992.88;5110083;27;39154;-78
2022/08/21 09:43:32;;;;;;;3.13;2.73;;;;;;;34.02;33.81;98990.03;5111130;28;40724;-73
2022/08/21 09:46:06;;;;;;;3.50;3.20;;;;;;;34.29;32.87;98985.66;5112055;28;42742;-76
2022/08/21 09:48:43;;;;;;;3.50;3.20;;;;;;;34.95;31.71;98997.88;5109224;28;42483;-75
2022/08/21 09:51:14;;;;;;;3.17;2.87;;;;;;;34.79;31.03;98990.44;5093893;28;40117;-78
2022/08/21 09:53:47;;;;;;;3.10;2.80;;;;;;;34.08;31.60;99000.06;5110457;28;41501;-75
2022/08/21 09:59:21;;;;;;;3.20;2.90;;;;;;;33.75;31.81;98998.88;5109663;28;43237;-74
2022/08/21 10:01:51;;;;;;;3.40;3.10;;;;;;;33.53;31.48;99003.25;5110628;28;40969;-77
2022/08/21 10:04:28;;;;;;;2.93;2.73;;;;;;;33.28;32.27;98999.94;5093733;28;42138;-78
2022/08/21 10:07:07;;;;;;;2.83;2.60;;;;;;;33.26;33.16;98986.44;5110737;28;41603;-78
2022/08/21 10:09:35;;;;;;;3.10;2.43;;;;;;;33.22;31.74;98992.63;5111893;28;42937;-76
2022/08/21 10:12:15;;;;;;;3.70;2.67;;;;;;;32.99;31.31;98987.97;5110491;28;38925;-79
2022/08/21 10:14:54;;;;;;;2.57;2.37;;;;;;;32.69;32.31;98986.09;5093252;28;41965;-77
2022/08/21 10:17:33;;;;;;;3.30;2.30;;;;;;;32.60;31.97;98987.53;5110517;28;44044;-74
2022/08/21 10:20:08;;;;;;;3.83;2.60;;;;;;;32.34;32.25;98983.25;5108750;28;42226;-78
2022/08/21 10:22:47;;;;;;;2.83;2.60;;;;;;;32.42;31.72;98985.66;5110137;28;40217;-77
2022/08/21 10:25:20;;;;;;;2.53;2.33;;;;;;;32.57;31.26;98981.66;5110489;28;41649;-75
2022/08/21 10:28:00;;;;;;;2.87;2.67;;;;;;;32.69;32.14;98979.78;5110125;28;43241;-78
2022/08/21 10:30:37;;;;;;;2.70;2.37;;;;;;;33.15;31.29;98979.84;5107427;28;41928;-77
2022/08/21 10:33:19;;;;;;;2.37;2.17;;;;;;;33.75;29.26;98987.88;5109868;28;40543;-72
2022/08/21 10:35:56;;;;;;;2.33;1.93;;;;;;;34.64;28.05;98995.66;5108571;28;42712;-77
2022/08/21 10:38:57;;;;;;;3.97;2.80;;;;;;;35.89;27.82;98992.41;5108105;28;42440;-76
2022/08/21 10:41:37;;;;;;;2.95;2.53;;;;;;;36.54;26.45;98991.53;5108412;28;42379;-78
2022/08/21 10:44:21;;;;;;;2.80;2.60;;;;;;;37.19;25.27;98993.25;5109369;28;39990;-77
2022/08/21 10:46:55;;;;;;;2.40;2.30;;;;;;;38.34;24.96;99005.19;5107372;28;42763;-77
2022/08/21 10:49:30;;;;;;;2.80;2.50;;;;;;;39.83;23.66;99000.19;5111034;28;43706;-75
2022/08/21 10:52:23;;;;;;;3.38;2.58;;;;;;;41.02;22.41;99002.91;5109107;28;41995;-77
2022/08/21 10:54:57;;;;;;;2.53;2.33;;;;;;;41.73;21.04;99011.41;5114209;28;41747;-77
2022/08/21 10:57:34;;;;;;;2.75;2.17;;;;;;;42.22;20.73;99025.00;5096876;28;40584;-73
2022/08/21 11:00:09;;;;;;;2.50;2.00;;;;;;;42.35;20.64;99014.25;5111725;28;42830;-77
2022/08/21 11:02:41;;;;;;;2.63;2.42;;;;;;;42.83;20.46;99006.63;5111042;28;42065;-76
2022/08/21 11:05:15;;;;;;;2.45;2.22;;;;;;;43.92;19.36;99008.84;5110847;28;40931;-77
2022/08/21 11:07:50;;;;;;;2.60;2.40;;;;;;;44.71;18.92;98998.19;5096217;28;40026;-78
2022/08/21 11:10:26;;;;;;;3.50;2.38;;;;;;;44.77;18.32;98998.88;5113374;28;42845;-75
2022/08/21 11:13:00;;;;;;;2.40;2.15;;;;;;;44.67;18.06;98991.56;5111121;28;42266;-77
2022/08/21 11:15:39;;;;;;;3.10;2.80;;;;;;;43.86;18.62;98990.56;5110502;28;40169;-76
2022/08/21 11:18:21;;;;;;;3.88;2.20;;;;;;;42.94;18.90;98986.66;5111462;28;41710;-82
2022/08/21 11:20:55;;;;;;;2.50;2.20;;;;;;;41.54;19.76;98985.47;5113731;28;42830;-74
2022/08/21 11:23:32;;;;;;;2.78;2.33;;;;;;;41.62;20.25;98970.09;5096266;28;42744;-80
2022/08/21 11:26:06;;;;;;;2.63;2.00;;;;;;;41.50;20.63;98957.41;5110402;28;40008;-76
2022/08/21 11:28:39;;;;;;;2.45;2.25;;;;;;;40.64;21.61;98955.41;5096021;28;42088;-74
2022/08/21 11:31:19;;;;;;;2.08;1.98;;;;;;;39.52;22.70;98954.28;5111543;28;41722;-73
2022/08/21 11:33:59;;;;;;;2.30;2.13;;;;;;;38.24;23.74;98911.94;5111190;28;43160;-76
2022/08/21 11:36:36;;;;;;;2.77;2.47;;;;;;;37.49;24.32;98946.44;5095655;28;39242;-75
2022/08/21 11:39:16;;;;;;;2.63;2.43;;;;;;;36.76;25.35;98933.50;5111502;28;41839;-76
2022/08/21 11:41:53;;;;;;;2.57;2.33;;;;;;;37.50;25.17;98933.47;5112278;28;41755;-75
2022/08/21 11:44:34;;;;;;;2.87;2.50;;;;;;;38.24;22.95;98945.13;5113548;28;42190;-76
2022/08/21 11:47:13;;;;;;;2.83;2.30;;;;;;;38.23;23.68;98914.97;5109608;28;41244;-74
2022/08/21 11:49:55;;;;;;;3.30;2.33;;;;;;;38.03;23.87;98933.16;5113724;28;41721;-76
2022/08/21 11:52:30;;;;;;;3.50;2.40;;;;;;;38.44;23.69;98922.22;5095223;28;44047;-73